Time;durP1;ratioP1;P1;durP2;ratioP2;P2;SDS_P1;SDS_P2;PMS_P1;PMS_P2;Temp;Humidity;BMP_temperature;BMP_pressure;BME280_temperature;BME280_humidity;BME280_pressure;Samples;Min_cycle;Max_cycle;Signal;HPM_P1;HPM_P2
2023/10/31 00:02:38;;;;;;;;;8.33;7.67;;;;;17.40;70.67;101255.16;146613;628;46016;-69
2023/10/31 00:05:43;;;;;;;;;6.67;5.33;;;;;17.25;72.61;101247.69;146622;578;47011;-66
2023/10/31 00:08:40;;;;;;;;;6.00;4.00;;;;;17.12;73.03;101249.03;146620;574;46016;-66
2023/10/31 00:11:53;;;;;;;;;5.67;5.67;;;;;17.04;71.56;101240.00;146623;622;46010;-67
2023/10/31 00:14:51;;;;;;;;;4.00;3.00;;;;;16.99;72.98;101236.38;146621;565;46012;-67
2023/10/31 00:18:01;;;;;;;;;5.33;4.00;;;;;16.03;71.73;101082.13;146620;601;46020;-66
2023/10/31 00:20:56;;;;;;;;;4.67;4.67;;;;;16.90;73.08;101243.91;146618;580;46012;-67
2023/10/31 00:24:03;;;;;;;;;4.67;3.67;;;;;16.87;73.09;101236.84;146622;648;47010;-68
2023/10/31 00:27:10;;;;;;;;;5.00;5.00;;;;;16.90;73.22;101239.56;146618;570;46016;-67
2023/10/31 00:30:14;;;;;;;;;4.67;3.67;;;;;16.98;72.57;101239.84;146621;564;46037;-67
2023/10/31 00:33:10;;;;;;;;;7.00;3.67;;;;;17.02;72.54;101233.84;146619;615;46014;-68
2023/10/31 00:36:14;;;;;;;;;4.33;4.33;;;;;16.98;72.10;101230.25;146620;629;46021;-68
2023/10/31 00:39:07;;;;;;;;;4.00;4.00;;;;;16.90;72.44;101226.47;146617;594;47012;-69
2023/10/31 00:42:09;;;;;;;;;6.33;5.00;;;;;16.87;72.44;101228.97;146620;552;46015;-69
2023/10/31 00:45:29;;;;;;;;;;;;;;;;;;;;;
2023/10/31 00:48:37;;;;;;;;;6.00;4.00;;;;;16.93;71.89;101220.44;146621;615;46022;-69
2023/10/31 00:51:37;;;;;;;;;4.00;3.00;;;;;16.92;71.22;101226.53;146619;614;47012;-68
2023/10/31 00:54:33;;;;;;;;;5.00;4.33;;;;;16.81;71.60;101226.16;146623;606;46014;-69
2023/10/31 00:57:33;;;;;;;;;6.00;3.33;;;;;16.74;71.51;101222.41;146614;588;46014;-68
2023/10/31 01:00:34;;;;;;;;;7.67;5.67;;;;;16.69;71.67;101223.97;146621;639;47010;-67
2023/10/31 01:03:35;;;;;;;;;3.00;3.00;;;;;16.66;71.97;101217.75;146619;570;46012;-68
2023/10/31 01:06:43;;;;;;;;;4.67;3.00;;;;;16.61;72.43;101212.38;146621;612;46021;-67
2023/10/31 01:09:45;;;;;;;;;3.00;3.00;;;;;16.55;71.95;101210.41;146615;661;48012;-68
2023/10/31 01:12:52;;;;;;;;;5.00;4.00;;;;;16.54;72.14;101207.72;146621;666;47020;-68
2023/10/31 01:16:09;;;;;;;;;;;;;;;;;;;;;
2023/10/31 01:19:12;;;;;;;;;5.33;4.00;;;;;16.47;73.12;101206.63;146618;605;47020;-68
2023/10/31 01:22:09;;;;;;;;;3.00;3.00;;;;;16.45;73.51;101203.09;146618;600;47016;-68
2023/10/31 01:25:22;;;;;;;;;6.33;5.00;;;;;16.38;75.14;101206.31;146620;659;46020;-67
2023/10/31 01:28:14;;;;;;;;;3.67;3.67;;;;;16.30;76.25;101199.94;146618;585;46913;-67
2023/10/31 01:31:23;;;;;;;;;8.33;4.00;;;;;16.27;75.91;101205.94;146620;629;46010;-68
2023/10/31 01:34:31;;;;;;;;;;;;;;;;;;;;;
2023/10/31 01:37:37;;;;;;;;;5.00;5.00;;;;;16.28;75.14;101202.47;146617;598;47022;-67
2023/10/31 01:40:38;;;;;;;;;5.00;5.00;;;;;16.28;75.83;101197.25;146619;672;46016;-67
2023/10/31 01:43:35;;;;;;;;;7.00;6.00;;;;;16.27;75.66;101199.81;146621;574;46020;-67
2023/10/31 01:46:50;;;;;;;;;7.67;6.00;;;;;15.38;73.89;101040.56;146617;673;46016;-68
2023/10/31 01:49:47;;;;;;;;;7.67;7.00;;;;;15.47;75.97;101058.28;146607;671;46021;-67
2023/10/31 01:52:44;;;;;;;;;6.67;5.00;;;;;16.26;76.26;101192.78;146605;572;47034;-67
2023/10/31 01:55:38;;;;;;;;;6.00;5.67;;;;;16.25;75.66;101197.13;146607;575;47029;-66
2023/10/31 01:58:43;;;;;;;;;6.33;5.00;;;;;16.25;75.32;101193.63;146606;570;46916;-66
2023/10/31 02:01:42;;;;;;;;;4.00;3.67;;;;;16.25;75.51;101194.53;146605;590;46020;-67
2023/10/31 02:04:44;;;;;;;;;5.33;5.00;;;;;15.83;75.04;101115.41;146603;565;46014;-68
2023/10/31 02:07:59;;;;;;;;;;;;;;;;;;;;;
2023/10/31 02:11:05;;;;;;;;;5.00;3.67;;;;;16.35;75.07;101180.94;146606;593;47013;-67
2023/10/31 02:14:03;;;;;;;;;6.67;6.67;;;;;16.41;74.46;101182.84;146609;577;46010;-68
2023/10/31 02:17:11;;;;;;;;;5.00;4.00;;;;;16.47;74.54;101188.31;146605;626;46915;-67
2023/10/31 02:20:18;;;;;;;;;5.33;4.00;;;;;16.53;74.79;101196.37;146611;633;46010;-69
2023/10/31 02:23:16;;;;;;;;;4.00;3.67;;;;;16.51;74.06;101191.91;146608;591;46016;-67
2023/10/31 02:26:15;;;;;;;;;5.67;4.00;;;;;16.52;73.42;101209.44;146608;607;46011;-68
2023/10/31 02:29:43;;;;;;;;;;;;;;;;;;;;;
2023/10/31 02:32:51;;;;;;;;;5.67;4.00;;;;;14.97;73.61;100942.41;146604;565;46038;-67
2023/10/31 02:36:07;;;;;;;;;3.33;3.00;;;;;16.38;73.27;101206.31;146604;684;46016;-67
2023/10/31 02:39:14;;;;;;;;;8.00;6.67;;;;;16.27;74.69;101210.28;146610;569;46010;-68
2023/10/31 02:42:30;;;;;;;;;5.33;5.00;;;;;16.10;73.60;101189.63;146604;628;47012;-68
2023/10/31 02:45:28;;;;;;;;;7.00;4.67;;;;;16.10;75.26;101201.81;146608;631;46012;-67
2023/10/31 02:48:32;;;;;;;;;1.33;1.00;;;;;16.07;75.50;101197.34;146608;638;46013;-67
2023/10/31 02:51:27;;;;;;;;;7.67;5.00;;;;;16.03;76.36;101185.00;146607;633;47020;-68
2023/10/31 02:54:23;;;;;;;;;8.00;8.00;;;;;15.99;77.31;101177.00;146606;625;47012;-67
2023/10/31 02:57:34;;;;;;;;;7.00;6.00;;;;;15.04;76.29;101016.63;146609;612;47010;-68
2023/10/31 03:00:51;;;;;;;;;6.00;6.00;;;;;15.94;76.45;101166.38;146605;601;46016;-67
2023/10/31 03:03:54;;;;;;;;;9.00;6.33;;;;;16.00;76.80;101163.97;146604;579;47021;-68
2023/10/31 03:06:51;;;;;;;;;7.33;6.00;;;;;16.04;76.57;101159.72;146604;588;46020;-68
2023/10/31 03:09:59;;;;;;;;;;;;;;;;;;;;;
2023/10/31 03:13:07;;;;;;;;;;;;;;;;;;;;;
2023/10/31 03:16:04;;;;;;;;;4.33;4.33;;;;;16.11;75.60;101175.72;146608;565;46020;-67
2023/10/31 03:19:04;;;;;;;;;6.67;5.33;;;;;16.15;75.44;101174.09;146606;644;47016;-66
2023/10/31 03:22:06;;;;;;;;;3.00;3.00;;;;;16.09;74.88;101180.00;146609;656;47010;-67
2023/10/31 03:24:58;;;;;;;;;5.00;4.67;;;;;16.04;74.57;101176.31;146604;589;47013;-66
2023/10/31 03:28:02;;;;;;;;;4.33;4.00;;;;;15.99;75.18;101177.00;146609;592;46020;-66
2023/10/31 03:31:20;;;;;;;;;8.33;5.00;;;;;15.99;74.24;101183.13;146606;563;46016;-65
2023/10/31 03:34:37;;;;;;;;;6.33;6.00;;;;;15.97;75.24;101186.50;146605;624;46020;-67
2023/10/31 03:37:39;;;;;;;;;7.33;5.33;;;;;15.96;75.44;101185.63;146604;571;46014;-68
2023/10/31 03:40:39;;;;;;;;;6.00;5.00;;;;;15.97;75.62;101181.28;146607;607;47010;-68
2023/10/31 03:43:41;;;;;;;;;12.33;6.00;;;;;15.93;75.47;101181.16;146603;578;46016;-69
2023/10/31 03:46:54;;;;;;;;;7.67;6.33;;;;;15.91;75.70;101184.56;146603;571;46915;-67
2023/10/31 03:49:48;;;;;;;;;9.33;5.00;;;;;15.87;75.91;101183.56;146604;575;47034;-68
2023/10/31 03:52:51;;;;;;;;;8.00;5.33;;;;;15.88;76.13;101192.28;146610;626;46010;-69
2023/10/31 03:55:55;;;;;;;;;4.67;4.67;;;;;15.06;75.32;101048.94;146605;564;48011;-67
2023/10/31 03:58:56;;;;;;;;;5.00;5.00;;;;;15.92;75.84;101191.59;146606;587;47014;-69
2023/10/31 04:01:56;;;;;;;;;7.00;5.00;;;;;15.84;76.16;101198.25;146607;605;46012;-67
2023/10/31 04:04:51;;;;;;;;;5.00;3.67;;;;;15.79;75.69;101195.44;146607;569;46010;-67
2023/10/31 04:08:08;;;;;;;;;7.00;7.00;;;;;13.85;74.96;100870.22;146605;593;46016;-67
2023/10/31 04:11:15;;;;;;;;;7.00;5.67;;;;;15.67;76.14;101200.25;146607;616;47032;-68
2023/10/31 04:14:27;;;;;;;;;7.00;5.00;;;;;15.59;76.59;101199.91;146605;586;46016;-68
2023/10/31 04:17:24;;;;;;;;;6.33;5.33;;;;;15.55;76.16;101210.19;146607;565;47011;-68
2023/10/31 04:20:20;;;;;;;;;4.33;4.00;;;;;15.51;76.50;101209.16;146605;569;47014;-68
2023/10/31 04:23:28;;;;;;;;;5.33;4.00;;;;;15.49;76.17;101208.22;146607;623;46020;-67
2023/10/31 04:26:29;;;;;;;;;5.33;5.33;;;;;15.45;76.66;101204.59;146605;634;47016;-68
2023/10/31 04:29:34;;;;;;;;;5.00;5.00;;;;;14.48;76.17;101042.25;146607;605;46010;-67
2023/10/31 04:32:41;;;;;;;;;7.00;5.00;;;;;15.34;76.57;101191.94;146603;571;47016;-69
2023/10/31 04:35:48;;;;;;;;;3.67;3.67;;;;;15.35;76.22;101194.59;146606;582;46020;-68
2023/10/31 04:38:52;;;;;;;;;6.33;4.00;;;;;15.40;77.25;101200.03;146605;624;46016;-67
2023/10/31 04:41:47;;;;;;;;;4.00;4.00;;;;;15.44;77.64;101200.19;146607;634;46020;-67
2023/10/31 04:44:48;;;;;;;;;4.67;4.67;;;;;15.50;77.35;101201.28;146604;614;46016;-68
2023/10/31 04:47:45;;;;;;;;;4.67;4.00;;;;;15.55;77.10;101213.69;146610;577;46010;-68
2023/10/31 04:50:40;;;;;;;;;3.33;3.33;;;;;15.63;76.86;101211.34;146606;590;46913;-69
2023/10/31 04:53:42;;;;;;;;;5.00;5.00;;;;;15.71;77.38;101241.34;146607;580;46010;-67
2023/10/31 04:56:42;;;;;;;;;8.00;7.00;;;;;15.78;76.15;101238.13;146605;675;46016;-68
2023/10/31 04:59:37;;;;;;;;;7.00;6.33;;;;;15.83;76.56;101233.97;146608;627;46020;-68
2023/10/31 05:02:43;;;;;;;;;10.50;8.25;;;;;15.89;76.47;101241.16;146603;652;48012;-68
2023/10/31 05:05:50;;;;;;;;;5.50;5.50;;;;;16.01;76.47;101245.94;146607;618;46020;-70
2023/10/31 05:08:47;;;;;;;;;4.50;4.50;;;;;16.22;78.60;101248.47;146605;572;46017;-69
2023/10/31 05:11:43;;;;;;;;;5.33;5.33;;;;;16.35;78.35;101242.84;146607;631;46012;-70
2023/10/31 05:14:43;;;;;;;;;10.25;7.00;;;;;16.52;77.58;101235.59;146603;622;47015;-69
2023/10/31 05:17:38;;;;;;;;;10.00;8.67;;;;;16.61;75.56;101228.97;146608;577;46020;-69
2023/10/31 05:20:41;;;;;;;;;8.67;7.67;;;;;16.63;74.21;101221.13;146605;616;46016;-69
2023/10/31 05:23:41;;;;;;;;;7.00;7.00;;;;;16.61;73.69;101226.34;146606;597;46021;-68
2023/10/31 05:26:47;;;;;;;;;10.00;8.00;;;;;16.64;73.48;101233.41;146604;620;46034;-70
2023/10/31 05:29:51;;;;;;;;;10.33;8.67;;;;;16.67;74.30;101228.28;146609;595;46020;-69
2023/10/31 05:33:07;;;;;;;;;9.33;8.00;;;;;15.24;73.40;100947.75;146603;571;47017;-69
2023/10/31 05:36:35;;;;;;;;;6.67;6.67;;;;;17.15;74.87;101127.72;146607;571;46037;-69
2023/10/31 05:39:29;;;;;;;;;10.67;8.33;;;;;18.81;71.74;101230.41;146605;583;46013;-68
2023/10/31 05:42:24;;;;;;;;;8.33;7.33;;;;;19.89;70.97;101234.75;146605;597;47014;-68
2023/10/31 05:45:17;;;;;;;;;6.00;6.00;;;;;20.97;63.61;101235.09;146605;658;47013;-68
2023/10/31 05:48:20;;;;;;;;;;;;;;;;;;;;;
2023/10/31 05:51:35;;;;;;;;;11.33;9.00;;;;;22.75;59.76;101200.50;146603;584;47012;-69
2023/10/31 05:54:57;;;;;;;;;9.00;7.00;;;;;23.11;55.56;101104.69;146609;600;46010;-69
2023/10/31 05:58:05;;;;;;;;;6.33;6.33;;;;;24.53;51.86;101238.62;146603;602;47012;-69
2023/10/31 06:01:09;;;;;;;;;8.67;7.67;;;;;23.80;52.95;101012.38;146609;604;46010;-69
2023/10/31 06:04:13;;;;;;;;;9.00;6.33;;;;;25.32;51.42;101230.69;146605;614;46012;-70
2023/10/31 06:07:13;;;;;;;;;5.00;5.00;;;;;25.67;51.09;101237.75;146605;582;46010;-68
2023/10/31 06:10:25;;;;;;;;;9.33;6.33;;;;;26.13;49.76;101240.22;146608;624;46016;-68
2023/10/31 06:13:31;;;;;;;;;10.00;8.00;;;;;25.85;51.03;101121.69;146607;630;46010;-69
2023/10/31 06:16:37;;;;;;;;;7.33;6.67;;;;;26.88;47.34;101239.78;146601;644;47017;-69
2023/10/31 06:19:24;;;;;;;;;7.00;7.00;;;;;27.13;47.61;101245.81;146712;564;46014;-68
2023/10/31 06:22:19;;;;;;;;;8.67;6.67;;;;;27.32;46.71;101240.31;146626;624;46014;-69
2023/10/31 06:25:20;;;;;;;;;14.67;11.67;;;;;27.43;46.79;101242.91;146626;583;47010;-68
2023/10/31 06:28:15;;;;;;;;;8.00;7.00;;;;;27.24;45.87;101243.06;146617;576;46016;-68
2023/10/31 06:31:11;;;;;;;;;6.00;6.00;;;;;26.92;44.66;101238.00;146630;571;46020;-68
2023/10/31 06:34:08;;;;;;;;;6.00;6.00;;;;;26.40;44.92;101233.00;146622;565;46017;-69
2023/10/31 06:37:11;;;;;;;;;7.00;7.00;;;;;25.73;47.82;101236.81;146630;658;46010;-70
2023/10/31 06:40:10;;;;;;;;;6.33;6.33;;;;;25.27;49.94;101251.06;146623;701;47012;-68
2023/10/31 06:43:08;;;;;;;;;6.33;6.33;;;;;24.98;49.95;101250.16;146631;629;46010;-68
2023/10/31 06:46:06;;;;;;;;;12.33;9.33;;;;;24.72;50.79;101253.66;146623;626;46016;-67
2023/10/31 06:49:09;;;;;;;;;9.33;7.33;;;;;24.48;52.86;101262.44;146629;586;46019;-69
2023/10/31 06:52:04;;;;;;;;;8.33;7.00;;;;;24.22;51.92;101272.06;146618;569;46016;-67
2023/10/31 06:55:02;;;;;;;;;8.00;8.00;;;;;24.00;52.44;101274.63;146630;703;46010;-68
2023/10/31 06:57:54;;;;;;;;;10.67;9.67;;;;;23.81;51.82;101271.00;146627;579;46016;-69
2023/10/31 07:00:52;;;;;;;;;12.00;9.67;;;;;23.58;52.19;101264.63;146631;569;46014;-68
2023/10/31 07:03:51;;;;;;;;;11.00;10.67;;;;;23.24;53.17;101269.66;146624;627;46016;-68
2023/10/31 07:06:52;;;;;;;;;8.00;7.67;;;;;22.93;55.95;101274.69;146623;626;47020;-68
2023/10/31 07:10:05;;;;;;;;;8.00;7.00;;;;;22.83;56.66;101273.72;146624;577;46015;-68
2023/10/31 07:12:59;;;;;;;;;12.00;10.67;;;;;22.80;55.17;101270.13;146629;587;47014;-68
2023/10/31 07:15:59;;;;;;;;;12.00;10.00;;;;;22.56;57.03;101269.03;146617;582;46914;-69
2023/10/31 07:18:55;;;;;;;;;10.33;8.00;;;;;22.44;58.27;101260.97;146617;578;46010;-68
2023/10/31 07:21:50;;;;;;;;;11.67;8.67;;;;;22.49;58.71;101258.34;146618;564;46914;-68
2023/10/31 07:24:42;;;;;;;;;10.67;10.00;;;;;22.57;58.73;101261.97;146621;619;47011;-68
2023/10/31 07:27:42;;;;;;;;;10.67;10.00;;;;;22.72;58.55;101267.44;146611;664;46016;-69
2023/10/31 07:30:37;;;;;;;;;6.33;6.00;;;;;22.93;57.98;101271.13;146615;563;46010;-69
2023/10/31 07:33:37;;;;;;;;;9.00;7.33;;;;;23.09;57.81;101257.22;146611;658;48914;-69
2023/10/31 07:36:35;;;;;;;;;10.00;8.33;;;;;23.29;56.60;101252.09;146623;581;46020;-67
2023/10/31 07:39:39;;;;;;;;;7.67;6.67;;;;;23.47;57.00;101246.03;146618;573;46016;-69
2023/10/31 07:42:32;;;;;;;;;5.33;5.00;;;;;23.63;56.32;101239.06;146622;596;46020;-69
2023/10/31 07:45:50;;;;;;;;;10.00;7.00;;;;;23.74;56.63;101222.41;146618;597;46012;-70
2023/10/31 07:48:42;;;;;;;;;12.00;7.00;;;;;23.78;56.27;101223.31;146620;599;47010;-69
2023/10/31 07:51:47;;;;;;;;;6.00;5.00;;;;;23.89;56.13;101215.41;146616;584;46914;-69
2023/10/31 07:54:47;;;;;;;;;8.00;6.67;;;;;23.99;56.15;101211.94;146622;615;46021;-68
2023/10/31 07:57:46;;;;;;;;;7.00;6.33;;;;;24.11;56.50;101208.41;146614;560;46016;-68
2023/10/31 08:00:42;;;;;;;;;8.00;7.67;;;;;24.19;54.66;101212.87;146623;569;46010;-69
2023/10/31 08:03:38;;;;;;;;;8.00;7.00;;;;;24.20;55.61;101222.63;146619;638;46013;-68
2023/10/31 08:06:40;;;;;;;;;8.33;6.00;;;;;24.27;55.74;101204.06;146615;609;49014;-68
2023/10/31 08:09:32;;;;;;;;;9.67;8.33;;;;;24.38;55.50;101197.91;146615;592;47013;-69
2023/10/31 08:12:27;;;;;;;;;9.00;7.00;;;;;24.53;53.51;101196.19;146619;581;47020;-68
2023/10/31 08:15:23;;;;;;;;;7.00;5.67;;;;;24.57;55.24;101182.94;146615;594;46016;-68
2023/10/31 08:18:29;;;;;;;;;8.00;7.00;;;;;24.68;55.26;101195.34;146624;602;46021;-68
2023/10/31 08:21:40;;;;;;;;;12.00;11.00;;;;;24.79;54.52;101196.22;146612;593;48916;-68
2023/10/31 08:24:57;;;;;;;;;13.50;11.75;;;;;24.85;55.46;101201.53;146615;630;46021;-70
2023/10/31 08:27:54;;;;;;;;;13.00;11.00;;;;;24.96;56.16;101212.16;146605;626;47016;-69
2023/10/31 08:30:51;;;;;;;;;13.75;12.25;;;;;25.03;54.29;101213.91;146613;597;46020;-69
2023/10/31 08:33:47;;;;;;;;;10.67;9.00;;;;;25.09;54.33;101224.50;146612;612;47013;-69
2023/10/31 08:36:48;;;;;;;;;11.67;11.00;;;;;25.16;53.28;101220.13;146621;565;47010;-68
2023/10/31 08:39:46;;;;;;;;;10.00;8.33;;;;;25.22;54.38;101221.00;146609;569;48013;-68
2023/10/31 08:42:42;;;;;;;;;9.33;7.67;;;;;25.38;53.17;101211.22;146619;639;47010;-68
2023/10/31 08:45:42;;;;;;;;;11.00;8.00;;;;;25.43;52.20;101205.94;146618;624;47012;-68
2023/10/31 08:48:42;;;;;;;;;8.33;7.00;;;;;25.45;53.52;101205.03;146619;621;46021;-68
2023/10/31 08:51:35;;;;;;;;;13.67;8.67;;;;;25.51;51.27;101205.03;146619;647;46016;-67
2023/10/31 08:54:27;;;;;;;;;7.67;7.00;;;;;25.62;52.79;101209.41;146622;573;46021;-69
2023/10/31 08:57:27;;;;;;;;;8.33;7.33;;;;;25.75;53.08;101204.03;146617;626;47016;-68
2023/10/31 09:00:23;;;;;;;;;7.33;7.00;;;;;25.85;51.76;101196.94;146622;595;46010;-68
2023/10/31 09:03:19;;;;;;;;;9.33;7.00;;;;;25.95;51.74;101188.06;146619;597;46013;-68
2023/10/31 09:06:15;;;;;;;;;9.00;8.00;;;;;26.06;51.99;101181.81;146622;604;46020;-68
2023/10/31 09:09:17;;;;;;;;;6.67;6.67;;;;;26.17;50.98;101172.03;146614;565;48016;-69
2023/10/31 09:12:22;;;;;;;;;8.33;6.00;;;;;25.93;52.75;101130.50;146619;586;47020;-69
2023/10/31 09:15:24;;;;;;;;;7.00;6.00;;;;;26.12;52.52;101157.88;146617;584;46016;-71
2023/10/31 09:18:36;;;;;;;;;11.33;8.33;;;;;26.26;52.82;101166.63;146616;582;47021;-70
2023/10/31 09:21:35;;;;;;;;;7.67;7.67;;;;;26.36;50.31;101152.41;146612;580;46016;-67
2023/10/31 09:24:44;;;;;;;;;7.67;7.67;;;;;26.47;52.01;101145.19;146616;604;46030;-67
2023/10/31 09:27:52;;;;;;;;;8.00;6.67;;;;;26.58;50.79;101131.87;146612;669;46913;-67
2023/10/31 09:30:47;;;;;;;;;9.00;7.67;;;;;26.73;51.40;101114.91;146618;622;46020;-69
2023/10/31 09:33:52;;;;;;;;;8.00;6.33;;;;;26.80;48.48;101105.06;146611;596;47012;-68
2023/10/31 09:36:56;;;;;;;;;6.67;6.33;;;;;26.88;50.28;101106.75;146611;579;48014;-67
2023/10/31 09:39:53;;;;;;;;;6.00;4.67;;;;;26.94;49.31;101097.81;146612;612;46016;-67
2023/10/31 09:42:54;;;;;;;;;8.00;5.00;;;;;26.94;48.56;101089.84;146617;599;46020;-66
2023/10/31 09:45:49;;;;;;;;;7.67;7.67;;;;;26.92;47.63;101094.31;146610;595;47030;-67
2023/10/31 09:48:47;;;;;;;;;7.67;7.00;;;;;26.83;47.78;101081.09;146616;662;46020;-70
2023/10/31 09:51:46;;;;;;;;;7.33;6.67;;;;;26.77;48.01;101079.38;146615;609;46016;-68
2023/10/31 09:55:07;;;;;;;;;9.00;8.00;;;;;26.72;50.52;101086.50;146614;572;47010;-69
2023/10/31 09:58:04;;;;;;;;;9.00;8.67;;;;;26.66;52.41;101083.91;146612;569;46012;-69
2023/10/31 10:00:59;;;;;;;;;11.33;9.67;;;;;26.63;51.80;101074.19;146615;668;46020;-69
2023/10/31 10:03:54;;;;;;;;;9.00;7.00;;;;;26.62;51.29;101066.22;146615;619;46016;-69
2023/10/31 10:07:33;;;;;;;;;;;;;;;;;;;;;
2023/10/31 10:10:36;;;;;;;;;11.67;7.67;;;;;26.69;51.55;101066.12;146611;598;46012;-68
2023/10/31 10:13:43;;;;;;;;;8.00;7.00;;;;;26.80;50.63;101051.88;146618;571;46010;-69
2023/10/31 10:16:46;;;;;;;;;5.00;4.00;;;;;26.80;50.56;101063.38;146609;570;47013;-68
2023/10/31 10:19:52;;;;;;;;;7.67;6.33;;;;;26.79;50.54;101047.44;146615;569;46020;-69
2023/10/31 10:22:56;;;;;;;;;8.00;6.33;;;;;25.93;50.78;100897.59;146608;659;46033;-69
2023/10/31 10:25:53;;;;;;;;;5.67;4.00;;;;;26.88;50.18;101050.00;146617;569;47010;-70
2023/10/31 10:28:55;;;;;;;;;7.00;7.00;;;;;26.88;50.95;101039.34;146614;579;46016;-68
2023/10/31 10:31:54;;;;;;;;;8.00;8.00;;;;;26.89;51.30;101035.81;146614;569;47010;-69
2023/10/31 10:34:50;;;;;;;;;9.67;9.67;;;;;26.77;50.14;101030.63;146611;618;46032;-69
2023/10/31 10:37:54;;;;;;;;;8.33;7.00;;;;;26.40;51.82;101033.59;146617;626;46020;-69
2023/10/31 10:40:55;;;;;;;;;10.67;8.67;;;;;26.00;52.71;101040.13;146611;607;46016;-69
2023/10/31 10:44:01;;;;;;;;;10.33;10.33;;;;;25.67;53.84;101033.25;146612;607;47010;-70
2023/10/31 10:47:01;;;;;;;;;9.33;8.67;;;;;25.49;55.71;101023.59;146604;601;46013;-69
2023/10/31 10:50:03;;;;;;;;;9.33;8.67;;;;;25.47;56.12;101022.72;146617;612;47010;-67
2023/10/31 10:53:45;;;;;;;;;13.33;10.67;;;;;24.66;55.96;100890.41;146609;583;47015;-69
2023/10/31 10:56:52;;;;;;;;;8.67;8.00;;;;;25.30;55.35;101022.81;146610;618;46020;-69
2023/10/31 11:00:02;;;;;;;;;10.00;9.33;;;;;25.14;56.87;101018.47;146610;606;46012;-70
2023/10/31 11:03:03;;;;;;;;;9.00;8.67;;;;;25.09;57.69;101022.84;146614;597;46041;-68
2023/10/31 11:06:25;;;;;;;;;9.33;7.67;;;;;25.08;57.75;101021.09;146610;591;47016;-68
2023/10/31 11:09:30;;;;;;;;;8.00;7.67;;;;;25.10;57.29;101020.19;146615;564;48020;-68
2023/10/31 11:12:45;;;;;;;;;4.00;4.00;;;;;25.12;57.20;101007.84;146613;569;46016;-68
2023/10/31 11:15:42;;;;;;;;;8.33;8.33;;;;;25.14;57.20;101014.91;146617;610;46020;-67
2023/10/31 11:19:04;;;;;;;;;9.33;8.33;;;;;25.19;56.81;101006.03;146610;576;46029;-67
2023/10/31 11:22:28;;;;;;;;;12.33;6.67;;;;;25.27;56.28;101004.25;146616;603;46020;-67
2023/10/31 11:25:31;;;;;;;;;9.00;8.00;;;;;25.56;55.72;100990.78;146610;565;46012;-68
2023/10/31 11:28:27;;;;;;;;;9.67;9.00;;;;;25.90;54.91;100987.06;146618;589;46020;-68
2023/10/31 11:31:25;;;;;;;;;9.00;7.00;;;;;26.23;54.18;100984.12;146611;656;47012;-68
2023/10/31 11:34:19;;;;;;;;;9.33;8.33;;;;;26.53;53.34;100982.09;146606;615;46020;-68
2023/10/31 11:37:41;;;;;;;;;9.00;9.00;;;;;26.72;54.57;100961.50;146608;564;47012;-67
2023/10/31 11:40:39;;;;;;;;;7.33;7.00;;;;;26.93;51.14;100952.37;146613;649;48010;-69
2023/10/31 11:44:13;;;;;;;;;7.00;6.33;;;;;25.86;51.50;100728.53;146610;753;46029;-68
2023/10/31 11:47:09;;;;;;;;;11.33;7.67;;;;;27.20;48.75;100950.28;146612;597;46014;-67
2023/10/31 11:50:20;;;;;;;;;;;;;;;;;;;;;
2023/10/31 11:53:22;;;;;;;;;9.33;7.33;;;;;26.86;50.21;100940.94;146617;580;47012;-67
2023/10/31 11:56:26;;;;;;;;;9.33;7.67;;;;;26.79;50.29;100936.59;146611;617;47016;-68
2023/10/31 11:59:28;;;;;;;;;9.00;8.67;;;;;26.72;51.08;100930.44;146619;592;46020;-68
2023/10/31 12:02:20;;;;;;;;;9.33;9.00;;;;;26.60;50.40;100919.06;146610;657;46016;-68
2023/10/31 12:05:27;;;;;;;;;10.33;10.33;;;;;26.37;51.42;100900.69;146602;707;47014;-67
2023/10/31 12:08:32;;;;;;;;;7.00;6.00;;;;;26.00;49.55;100888.66;146607;594;47012;-69
2023/10/31 12:11:37;;;;;;;;;6.67;6.33;;;;;25.83;50.79;100887.94;146615;592;46020;-69
2023/10/31 12:14:35;;;;;;;;;6.33;5.67;;;;;25.66;51.88;100895.13;146615;629;45044;-67
2023/10/31 12:17:33;;;;;;;;;4.33;4.33;;;;;25.67;51.65;100902.19;146616;572;46020;-68
2023/10/31 12:20:48;;;;;;;;;3.00;3.00;;;;;25.80;52.65;100902.09;146610;638;47032;-67
2023/10/31 12:23:47;;;;;;;;;6.00;6.00;;;;;25.96;53.07;100909.97;146616;616;46021;-69
2023/10/31 12:26:51;;;;;;;;;4.00;4.00;;;;;26.04;51.19;100913.41;146612;587;46916;-68
2023/10/31 12:29:45;;;;;;;;;5.00;5.00;;;;;26.09;48.47;100916.06;146614;650;47011;-68
2023/10/31 12:32:39;;;;;;;;;4.67;4.67;;;;;25.98;49.41;100916.13;146610;570;47012;-66
2023/10/31 12:35:41;;;;;;;;;5.00;4.67;;;;;25.94;49.73;100912.63;146603;605;47020;-68
2023/10/31 12:38:42;;;;;;;;;5.00;4.33;;;;;26.02;50.44;100920.53;146609;591;47013;-67
2023/10/31 12:41:36;;;;;;;;;5.67;5.67;;;;;26.12;50.05;100918.69;146616;661;46020;-67
2023/10/31 12:44:34;;;;;;;;;5.33;5.33;;;;;26.19;48.34;100907.94;146612;586;46014;-69
2023/10/31 12:47:33;;;;;;;;;6.00;5.00;;;;;26.15;49.12;100897.38;146616;642;46020;-67
2023/10/31 12:50:40;;;;;;;;;5.00;4.00;;;;;26.03;46.67;100891.28;146608;582;47016;-67
2023/10/31 12:53:45;;;;;;;;;5.00;3.33;;;;;25.80;46.76;100894.13;146614;614;47010;-69
2023/10/31 12:57:04;;;;;;;;;3.33;3.33;;;;;25.27;48.95;100837.03;146611;611;47012;-69
2023/10/31 13:00:24;;;;;;;;;5.33;4.67;;;;;25.24;48.72;100883.94;146617;596;47010;-68
2023/10/31 13:03:30;;;;;;;;;5.00;5.00;;;;;25.18;50.22;100870.72;146600;609;49918;-68
2023/10/31 13:06:27;;;;;;;;;5.00;4.67;;;;;25.16;49.63;100873.38;146602;622;47010;-68
2023/10/31 13:09:34;;;;;;;;;7.33;4.33;;;;;25.12;50.93;100868.94;146611;564;47012;-68
2023/10/31 13:12:46;;;;;;;;;9.00;5.00;;;;;23.66;53.31;100638.16;146616;575;46020;-68
2023/10/31 13:15:48;;;;;;;;;7.67;5.33;;;;;24.89;52.93;100864.66;146610;573;47013;-68
2023/10/31 13:18:50;;;;;;;;;5.00;5.00;;;;;25.07;53.01;100866.31;146617;636;46020;-67
2023/10/31 13:21:51;;;;;;;;;1.00;1.00;;;;;25.30;49.78;100852.06;146609;577;47015;-68
2023/10/31 13:24:47;;;;;;;;;6.00;4.67;;;;;25.49;50.37;100864.28;146617;566;46010;-69
2023/10/31 13:27:52;;;;;;;;;6.33;4.00;;;;;25.61;48.97;100860.66;146611;591;46918;-67
2023/10/31 13:30:57;;;;;;;;;3.67;3.67;;;;;25.47;48.91;100854.56;146614;584;47011;-68
2023/10/31 13:33:50;;;;;;;;;6.00;6.00;;;;;25.53;48.79;100851.88;146609;586;46016;-68
2023/10/31 13:36:42;;;;;;;;;4.00;4.00;;;;;25.62;45.50;100846.47;146602;609;47010;-67
2023/10/31 13:39:55;;;;;;;;;8.00;5.00;;;;;25.74;47.60;100848.16;146609;680;47016;-66
2023/10/31 13:42:54;;;;;;;;;7.67;6.67;;;;;25.80;48.37;100848.97;146608;636;47010;-67
2023/10/31 13:45:59;;;;;;;;;6.00;4.00;;;;;25.88;48.75;100845.41;146611;759;46012;-68
2023/10/31 13:48:51;;;;;;;;;5.00;5.00;;;;;25.87;48.17;100839.19;146614;615;47020;-68
2023/10/31 13:51:52;;;;;;;;;4.00;4.00;;;;;25.83;48.33;100841.91;146609;633;47013;-68
2023/10/31 13:55:03;;;;;;;;;4.00;3.33;;;;;25.68;46.66;100833.16;146617;596;46037;-69
2023/10/31 13:58:32;;;;;;;;;3.67;2.67;;;;;25.47;46.19;100828.91;146612;570;47017;-68
2023/10/31 14:01:44;;;;;;;;;5.00;4.33;;;;;25.39;48.96;100822.81;146614;694;46020;-68
2023/10/31 14:04:46;;;;;;;;;5.00;4.33;;;;;25.28;46.44;100822.88;146613;644;47012;-68
2023/10/31 14:07:50;;;;;;;;;6.00;4.33;;;;;25.19;47.59;100817.63;146603;716;46030;-69
2023/10/31 14:10:56;;;;;;;;;5.67;5.00;;;;;25.08;46.70;100812.38;146612;577;46012;-68
2023/10/31 14:14:03;;;;;;;;;4.00;4.00;;;;;25.01;48.06;100812.41;146614;606;47010;-68
2023/10/31 14:17:00;;;;;;;;;5.67;3.67;;;;;24.92;46.70;100817.78;146611;586;47012;-68
2023/10/31 14:20:17;;;;;;;;;5.00;4.00;;;;;23.28;48.60;100546.56;146614;575;47010;-67
2023/10/31 14:23:14;;;;;;;;;5.67;4.33;;;;;24.71;47.61;100800.25;146610;579;47014;-65
2023/10/31 14:26:07;;;;;;;;;4.33;4.00;;;;;24.59;47.63;100790.56;146614;580;46010;-65